This is the latest recevied weather packets stored in our database for station/object SP2FH-13. If no packets are shown the sender has not sent any weather packets the latest 10 day(s).
| Time | Temp. | Humidity | Pressure | Rain* | Wind** | Luminosity | Snow |
|---|---|---|---|---|---|---|---|
| 1777563570 | 13.89° C | 39% | 1016.5 hPa | - | - | 55 W/m² | - |
| 1777563269 | 13.89° C | 38% | 1016.5 hPa | - | - | 53 W/m² | - |
| 1777562968 | 13.89° C | 38% | 1016.5 hPa | - | - | 47 W/m² | - |
| 1777562366 | 13.89° C | 37% | 1016.4 hPa | - | - | 56 W/m² | - |
| 1777562065 | 13.89° C | 36% | 1016.4 hPa | - | - | 72 W/m² | - |
| 1777561463 | 13.89° C | 36% | 1016.6 hPa | - | - | 89 W/m² | - |
| 1777559656 | 13.89° C | 38% | 1016.9 hPa | - | - | 193 W/m² | - |
| 1777559054 | 14.44° C | 34% | 1017 hPa | - | - | 196 W/m² | - |
| 1777558753 | 14.44° C | 35% | 1017.1 hPa | - | - | 181 W/m² | - |
| 1777557247 | 13.89° C | 36% | 1017.3 hPa | - | - | 230 W/m² | - |
| 1777556946 | 13.89° C | 35% | 1017.4 hPa | - | - | 239 W/m² | - |
| 1777556042 | 13.33° C | 35% | 1017.4 hPa | - | - | 261 W/m² | - |
| 1777555440 | 14.44° C | 32% | 1017.4 hPa | - | - | 331 W/m² | - |
| 1777555139 | 14.44° C | 32% | 1017.4 hPa | - | - | 345 W/m² | - |
| 1777554837 | 13.89° C | 32% | 1017.4 hPa | - | - | 516 W/m² | - |
| 1777554537 | 14.44° C | 32% | 1017.5 hPa | - | - | 363 W/m² | - |
| 1777554236 | 14.44° C | 31% | 1017.7 hPa | - | - | 450 W/m² | - |
| 1777553935 | 14.44° C | 32% | 1017.8 hPa | - | - | 662 W/m² | - |
| 1777553634 | 13.33° C | 32% | 1017.9 hPa | - | - | 574 W/m² | - |
| 1777553333 | 12.78° C | 33% | 1017.9 hPa | - | - | 727 W/m² | - |
| 1777553032 | 13.33° C | 34% | 1017.9 hPa | - | - | 699 W/m² | - |
| 1777552128 | 13.33° C | 33% | 1018.1 hPa | - | - | 549 W/m² | - |
| 1777551525 | 12.78° C | 33% | 1018.4 hPa | - | - | 359 W/m² | - |
| 1777551224 | 12.78° C | 33% | 1018.4 hPa | - | - | 246 W/m² | - |
| 1777548512 | 12.22° C | 35% | 1018.7 hPa | - | - | 624 W/m² | - |
* Rain since midnight (hover to see other rain measurements)
** Current wind speed in m/s (hover to see current wind gust speed)